Time;durP1;ratioP1;P1;durP2;ratioP2;P2;SDS_P1;SDS_P2;PMS_P1;PMS_P2;Temp;Humidity;BMP_temperature;BMP_pressure;BME280_temperature;BME280_humidity;BME280_pressure;Samples;Min_cycle;Max_cycle;Signal;HPM_P1;HPM_P2
2023/10/09 00:03:23;;;;;;;8.33;4.23;;;;;13.10;101474.00;;;;5014412;28;20360;-70
2023/10/09 00:06:12;;;;;;;12.27;4.73;;;;;13.10;101482.00;;;;5024192;28;20226;-71
2023/10/09 00:09:11;;;;;;;9.50;4.60;;;;;13.10;101471.00;;;;5018646;28;20223;-69
2023/10/09 00:12:00;;;;;;;10.90;4.97;;;;;13.10;101470.00;;;;5022740;28;20387;-71
2023/10/09 00:14:48;;;;;;;12.93;5.23;;;;;13.20;101465.00;;;;5018774;28;20265;-74
2023/10/09 00:17:34;;;;;;;7.17;4.20;;;;;13.20;101456.00;;;;5022997;28;20218;-69
2023/10/09 00:20:24;;;;;;;15.03;5.23;;;;;13.30;101460.00;;;;5021168;28;20221;-72
2023/10/09 00:23:15;;;;;;;10.30;5.77;;;;;13.30;101461.00;;;;5026069;28;20345;-74
2023/10/09 00:26:12;;;;;;;11.30;5.67;;;;;13.30;101464.00;;;;5023122;28;20229;-68
2023/10/09 00:29:05;;;;;;;13.20;5.43;;;;;13.40;101462.00;;;;5024398;28;20228;-70
2023/10/09 00:31:55;;;;;;;10.97;5.30;;;;;13.40;101442.00;;;;5016363;28;20270;-69
2023/10/09 00:34:42;;;;;;;9.83;5.57;;;;;13.40;101438.00;;;;5024506;28;20231;-72
2023/10/09 00:37:33;;;;;;;16.20;6.77;;;;;13.40;101431.00;;;;5020040;28;20221;-71
2023/10/09 00:40:23;;;;;;;15.00;7.47;;;;;13.40;101432.00;;;;5022929;28;20628;-76
2023/10/09 00:43:13;;;;;;;16.90;8.33;;;;;13.40;101416.00;;;;5016019;28;20233;-70
2023/10/09 00:46:12;;;;;;;16.60;8.30;;;;;13.50;101421.00;;;;5016453;28;20218;-70
2023/10/09 00:49:02;;;;;;;17.03;8.77;;;;;13.50;101420.00;;;;5016748;28;20782;-72
2023/10/09 00:51:56;;;;;;;20.47;9.00;;;;;13.60;101406.00;;;;5015304;28;20300;-71
2023/10/09 00:54:44;;;;;;;20.07;8.97;;;;;13.70;101412.00;;;;5021962;28;20222;-70
2023/10/09 00:57:33;;;;;;;24.30;10.10;;;;;13.70;101422.00;;;;5017898;28;20222;-69
2023/10/09 01:00:32;;;;;;;25.13;9.77;;;;;13.80;101422.00;;;;5013884;28;20293;-70
2023/10/09 01:03:22;;;;;;;23.43;10.00;;;;;13.80;101423.00;;;;5019471;28;20234;-72
2023/10/09 01:06:18;;;;;;;21.83;10.60;;;;;13.80;101427.00;;;;5015670;28;21004;-71
2023/10/09 01:09:10;;;;;;;25.87;10.60;;;;;13.90;101431.00;;;;5013251;28;20317;-72
2023/10/09 01:12:04;;;;;;;20.10;10.37;;;;;13.90;101428.00;;;;5013690;28;20230;-71
2023/10/09 01:14:55;;;;;;;22.27;10.70;;;;;13.90;101436.00;;;;5015371;28;20222;-69
2023/10/09 01:17:45;;;;;;;21.43;10.37;;;;;13.90;101430.00;;;;5026037;28;20239;-72
2023/10/09 01:20:41;;;;;;;24.20;10.70;;;;;14.00;101412.00;;;;5026965;28;20235;-72
2023/10/09 01:23:29;;;;;;;25.80;11.50;;;;;14.00;101419.00;;;;5022849;28;20361;-71
2023/10/09 01:26:16;;;;;;;27.80;11.50;;;;;14.00;101402.00;;;;5023151;28;20711;-71
2023/10/09 01:29:04;;;;;;;25.87;11.40;;;;;14.00;101408.00;;;;5021007;28;20777;-73
2023/10/09 01:31:54;;;;;;;24.20;10.57;;;;;14.00;101412.00;;;;5023967;28;20280;-71
2023/10/09 01:34:44;;;;;;;21.83;10.57;;;;;14.00;101413.00;;;;5022305;28;20316;-73
2023/10/09 01:37:31;;;;;;;22.37;9.90;;;;;14.00;101409.00;;;;5024973;28;20727;-71
2023/10/09 01:40:27;;;;;;;20.27;10.07;;;;;13.90;101405.00;;;;5022302;28;20239;-73
2023/10/09 01:43:18;;;;;;;21.27;10.17;;;;;13.90;101415.00;;;;5016456;28;20821;-71
2023/10/09 01:46:05;;;;;;;22.83;11.27;;;;;13.80;101404.00;;;;5018707;28;20233;-70
2023/10/09 01:48:53;;;;;;;21.23;9.90;;;;;13.80;101402.00;;;;5019455;28;20237;-70
2023/10/09 01:51:40;;;;;;;23.97;11.07;;;;;13.90;101396.00;;;;5026918;28;20233;-69
2023/10/09 01:54:36;;;;;;;22.93;10.97;;;;;13.90;101409.00;;;;5026594;28;20223;-72
2023/10/09 01:57:25;;;;;;;23.83;10.70;;;;;13.90;101416.00;;;;5021389;28;20593;-71
2023/10/09 02:00:23;;;;;;;23.73;11.57;;;;;14.00;101414.00;;;;5017050;28;20223;-70
2023/10/09 02:03:12;;;;;;;31.40;12.63;;;;;14.00;101418.00;;;;5016371;28;20837;-70
2023/10/09 02:06:00;;;;;;;27.07;12.13;;;;;14.10;101405.00;;;;5015656;28;20293;-73
2023/10/09 02:08:49;;;;;;;26.37;13.07;;;;;14.20;101411.00;;;;5023529;28;20244;-69
2023/10/09 02:11:41;;;;;;;31.07;13.33;;;;;14.20;101416.00;;;;5022400;28;20744;-71
2023/10/09 02:14:29;;;;;;;33.47;13.57;;;;;14.20;101411.00;;;;5022329;28;20234;-72
2023/10/09 02:17:18;;;;;;;31.70;12.77;;;;;14.20;101398.00;;;;5021902;28;20950;-70
2023/10/09 02:20:17;;;;;;;28.60;12.93;;;;;14.30;101410.00;;;;5024979;28;20301;-70
2023/10/09 02:23:12;;;;;;;34.80;13.20;;;;;14.30;101402.00;;;;5026477;28;20237;-72
2023/10/09 02:26:02;;;;;;;30.40;12.67;;;;;14.30;101395.00;;;;5018560;28;20773;-72
2023/10/09 02:28:58;;;;;;;35.30;13.57;;;;;14.30;101406.00;;;;5023833;28;20918;-70
2023/10/09 02:31:51;;;;;;;27.80;13.23;;;;;14.40;101390.00;;;;5025389;28;20280;-70
2023/10/09 02:34:38;;;;;;;29.80;13.60;;;;;14.40;101389.00;;;;5013453;28;20371;-73
2023/10/09 02:37:25;;;;;;;30.63;14.37;;;;;14.40;101381.00;;;;5022325;28;20295;-70
2023/10/09 02:40:22;;;;;;;33.67;15.53;;;;;14.50;101371.00;;;;5019588;28;20225;-69
2023/10/09 02:43:13;;;;;;;33.87;14.00;;;;;14.50;101377.00;;;;5017972;28;20309;-70
2023/10/09 02:46:06;;;;;;;32.13;14.43;;;;;14.50;101375.00;;;;5019755;28;20221;-72
2023/10/09 02:48:53;;;;;;;34.33;14.90;;;;;14.50;101374.00;;;;5015611;28;20304;-70
2023/10/09 02:51:47;;;;;;;34.33;13.43;;;;;14.50;101369.00;;;;5020934;28;20315;-70
2023/10/09 02:54:36;;;;;;;30.80;14.00;;;;;14.50;101377.00;;;;5016641;28;20235;-70
2023/10/09 02:57:23;;;;;;;29.37;14.50;;;;;14.50;101377.00;;;;5019765;28;20951;-69
2023/10/09 03:00:18;;;;;;;27.37;14.37;;;;;14.60;101360.00;;;;5017454;28;20226;-70
2023/10/09 03:03:07;;;;;;;32.23;14.37;;;;;14.60;101359.00;;;;5020232;28;20237;-70
2023/10/09 03:05:54;;;;;;;32.03;14.60;;;;;14.60;101363.00;;;;5025635;28;20654;-70
2023/10/09 03:08:41;;;;;;;32.53;15.80;;;;;14.60;101352.00;;;;5018758;28;20253;-70
2023/10/09 03:11:27;;;;;;;25.80;13.90;;;;;14.60;101343.00;;;;5019064;28;20714;-69
2023/10/09 03:14:14;;;;;;;29.83;14.90;;;;;14.60;101352.00;;;;5019981;28;20889;-69
2023/10/09 03:17:00;;;;;;;31.67;14.43;;;;;14.60;101338.00;;;;5018059;28;20228;-69
2023/10/09 03:19:47;;;;;;;32.97;15.47;;;;;14.60;101334.00;;;;5018021;28;20328;-72
2023/10/09 03:22:35;;;;;;;39.87;16.53;;;;;14.60;101346.00;;;;5025321;28;20241;-70
2023/10/09 03:25:25;;;;;;;33.07;16.07;;;;;14.70;101347.00;;;;5020682;28;20393;-71
2023/10/09 03:28:11;;;;;;;34.07;16.20;;;;;14.60;101335.00;;;;5024431;28;20363;-72
2023/10/09 03:30:59;;;;;;;30.23;15.40;;;;;14.60;101329.00;;;;5019784;28;20274;-71
2023/10/09 03:33:47;;;;;;;32.37;15.43;;;;;14.70;101331.00;;;;5024400;28;20228;-70
2023/10/09 03:36:37;;;;;;;35.37;16.57;;;;;14.70;101325.00;;;;5024522;28;20257;-71
2023/10/09 03:39:34;;;;;;;36.73;15.93;;;;;14.60;101316.00;;;;5020053;28;20260;-69
2023/10/09 03:42:22;;;;;;;34.77;16.00;;;;;14.70;101311.00;;;;5014524;28;20230;-70
2023/10/09 03:45:18;;;;;;;31.43;15.87;;;;;14.70;101305.00;;;;5011673;28;20863;-70
2023/10/09 03:48:11;;;;;;;30.10;16.03;;;;;14.70;101307.00;;;;5020435;28;20241;-68
2023/10/09 03:51:08;;;;;;;31.17;16.20;;;;;14.70;101308.00;;;;5022029;28;20790;-72
2023/10/09 03:53:54;;;;;;;34.90;16.57;;;;;14.70;101289.00;;;;5024538;28;20670;-70
2023/10/09 03:56:42;;;;;;;35.57;16.50;;;;;14.70;101296.00;;;;5021824;28;20232;-69
2023/10/09 03:59:31;;;;;;;36.93;16.27;;;;;14.70;101292.00;;;;5020770;28;20299;-72
2023/10/09 04:02:18;;;;;;;33.57;16.37;;;;;14.70;101299.00;;;;5014889;28;20715;-71
2023/10/09 04:05:07;;;;;;;36.90;15.57;;;;;14.70;101291.00;;;;5014729;28;20271;-69
2023/10/09 04:07:58;;;;;;;29.50;15.80;;;;;14.70;101296.00;;;;5022754;28;20255;-70
2023/10/09 04:10:51;;;;;;;31.77;15.60;;;;;14.70;101300.00;;;;5015231;28;20770;-71
2023/10/09 04:13:42;;;;;;;31.10;15.53;;;;;14.70;101297.00;;;;5025307;28;20275;-69
2023/10/09 04:16:51;;;;;;;36.20;15.73;;;;;14.70;101284.00;;;;5023287;28;20221;-70
2023/10/09 04:19:48;;;;;;;28.33;15.23;;;;;14.70;101297.00;;;;5014492;28;20267;-72
2023/10/09 04:22:38;;;;;;;30.20;15.70;;;;;14.70;101300.00;;;;5016474;28;20241;-72
2023/10/09 04:25:26;;;;;;;29.77;15.90;;;;;14.70;101304.00;;;;5027275;28;20247;-69
2023/10/09 04:28:19;;;;;;;36.83;15.77;;;;;14.70;101299.00;;;;5017472;28;20225;-69
2023/10/09 04:31:08;;;;;;;28.43;14.23;;;;;14.70;101298.00;;;;5017861;28;20226;-69
2023/10/09 04:34:21;;;;;;;33.03;15.37;;;;;14.70;101298.00;;;;5021258;28;20761;-70
2023/10/09 04:37:36;;;;;;;32.47;16.37;;;;;14.80;101293.00;;;;5022477;28;20344;-71
2023/10/09 04:43:23;;;;;;;31.13;14.37;;;;;14.80;101298.00;;;;5021411;28;20232;-69
2023/10/09 04:46:12;;;;;;;32.97;14.97;;;;;14.80;101299.00;;;;5017986;28;20736;-71
2023/10/09 04:49:15;;;;;;;29.37;15.23;;;;;14.80;101300.00;;;;5018676;28;20723;-71
2023/10/09 04:52:08;;;;;;;35.37;16.23;;;;;14.90;101284.00;;;;5024875;28;20360;-71
2023/10/09 04:55:12;;;;;;;31.53;16.57;;;;;14.90;101286.00;;;;5027038;28;20225;-71
2023/10/09 04:58:02;;;;;;;32.23;16.67;;;;;14.90;101293.00;;;;5027641;28;20294;-71
2023/10/09 05:01:02;;;;;;;33.37;16.50;;;;;14.90;101300.00;;;;5022793;28;20292;-71
2023/10/09 05:03:56;;;;;;;31.60;14.67;;;;;14.90;101310.00;;;;5025265;28;20225;-71
2023/10/09 05:06:54;;;;;;;29.83;14.50;;;;;14.90;101319.00;;;;5018905;28;20242;-70
2023/10/09 05:09:55;;;;;;;26.80;14.00;;;;;14.90;101334.00;;;;5016437;28;20240;-71
2023/10/09 05:12:46;;;;;;;30.43;15.70;;;;;14.90;101329.00;;;;5023270;28;20281;-70
2023/10/09 05:15:34;;;;;;;30.07;15.40;;;;;14.90;101332.00;;;;5022264;28;20238;-69
2023/10/09 05:18:27;;;;;;;31.47;15.67;;;;;14.90;101336.00;;;;5023353;28;20255;-70
2023/10/09 05:24:19;;;;;;;28.43;14.73;;;;;14.90;101337.00;;;;5019050;28;20229;-70
2023/10/09 05:27:17;;;;;;;29.73;15.27;;;;;15.00;101334.00;;;;5027805;28;20231;-70
2023/10/09 05:30:24;;;;;;;29.10;14.90;;;;;15.00;101347.00;;;;5020929;28;20766;-70
2023/10/09 05:36:35;;;;;;;27.57;15.57;;;;;15.00;101356.00;;;;5026058;28;20229;-71
2023/10/09 05:39:41;;;;;;;28.27;15.27;;;;;15.00;101337.00;;;;5028299;28;20603;-72
2023/10/09 05:42:30;;;;;;;31.40;15.70;;;;;15.10;101340.00;;;;5024525;28;20233;-70
2023/10/09 05:51:44;;;;;;;27.17;15.00;;;;;15.10;101356.00;;;;5027377;28;20597;-68
2023/10/09 06:03:55;;;;;;;31.20;14.43;;;;;15.20;101349.00;;;;5008974;28;20272;-69
2023/10/09 06:06:45;;;;;;;26.17;14.10;;;;;15.20;101362.00;;;;5022432;28;20236;-70
2023/10/09 06:13:03;;;;;;;33.67;14.67;;;;;15.30;101365.00;;;;5021549;28;20235;-70
2023/10/09 06:16:09;;;;;;;29.30;14.40;;;;;15.20;101351.00;;;;5018992;28;20222;-69
2023/10/09 06:19:07;;;;;;;27.53;14.47;;;;;15.30;101357.00;;;;5019242;28;20234;-69
2023/10/09 06:25:08;;;;;;;26.57;14.73;;;;;15.40;101360.00;;;;5023099;28;20743;-64
2023/10/09 06:27:57;;;;;;;26.83;13.83;;;;;15.40;101374.00;;;;5022753;28;20240;-67
2023/10/09 06:30:46;;;;;;;27.63;13.63;;;;;15.40;101381.00;;;;5021533;28;20396;-68
2023/10/09 06:33:57;;;;;;;25.13;13.70;;;;;15.40;101384.00;;;;5019551;28;20241;-69
2023/10/09 06:36:52;;;;;;;22.83;13.37;;;;;15.50;101379.00;;;;5022811;28;20229;-69
2023/10/09 06:42:51;;;;;;;24.73;14.00;;;;;15.50;101383.00;;;;5006937;28;20307;-67
2023/10/09 06:45:44;;;;;;;27.43;13.80;;;;;15.60;101390.00;;;;5019746;28;20809;-69
2023/10/09 06:48:55;;;;;;;31.30;14.23;;;;;15.60;101392.00;;;;5014055;28;20222;-68
2023/10/09 06:51:42;;;;;;;25.67;13.77;;;;;15.60;101402.00;;;;5023765;28;20742;-68
2023/10/09 06:54:37;;;;;;;22.70;12.73;;;;;15.60;101383.00;;;;5019208;28;20593;-68
2023/10/09 06:57:48;;;;;;;24.60;13.17;;;;;15.70;101386.00;;;;5026153;28;20228;-68
2023/10/09 07:00:54;;;;;;;23.50;12.93;;;;;15.70;101394.00;;;;5014840;28;20242;-68
2023/10/09 07:03:51;;;;;;;26.90;13.73;;;;;15.70;101391.00;;;;5020392;28;20256;-68
2023/10/09 07:06:52;;;;;;;25.47;12.90;;;;;15.80;101400.00;;;;5017241;28;20239;-69
2023/10/09 07:09:42;;;;;;;25.63;14.00;;;;;15.80;101397.00;;;;5014317;28;20245;-68
2023/10/09 07:12:32;;;;;;;26.03;13.17;;;;;15.80;101411.00;;;;5017576;28;20622;-71
2023/10/09 07:18:40;;;;;;;23.07;12.97;;;;;15.80;101419.00;;;;5022770;28;20227;-69
2023/10/09 07:21:28;;;;;;;26.27;13.53;;;;;15.80;101411.00;;;;5017422;28;20229;-69
2023/10/09 07:24:17;;;;;;;22.33;13.20;;;;;15.90;101403.00;;;;5015142;28;20784;-70
2023/10/09 07:27:08;;;;;;;24.27;13.50;;;;;15.90;101363.00;;;;5016711;28;21473;-69
2023/10/09 07:29:55;;;;;;;25.63;14.27;;;;;16.00;101335.00;;;;5019920;28;20746;-68
2023/10/09 07:32:43;;;;;;;30.57;14.30;;;;;16.00;101346.00;;;;5017448;28;20371;-69
2023/10/09 07:35:46;;;;;;;26.70;13.83;;;;;16.00;101388.00;;;;5020126;28;20233;-71
2023/10/09 07:38:36;;;;;;;20.07;12.10;;;;;16.00;101409.00;;;;5017467;28;20367;-69
2023/10/09 07:41:37;;;;;;;19.93;12.20;;;;;16.00;101406.00;;;;5016577;28;20280;-71
2023/10/09 07:44:37;;;;;;;23.60;12.47;;;;;16.00;101389.00;;;;5024545;28;20232;-69
2023/10/09 07:47:45;;;;;;;25.97;13.90;;;;;16.00;101381.00;;;;5019627;28;20234;-69
2023/10/09 07:50:38;;;;;;;21.60;13.47;;;;;16.10;101389.00;;;;5016985;28;20308;-70
2023/10/09 07:53:29;;;;;;;22.20;12.80;;;;;16.00;101384.00;;;;5024249;28;20230;-69
2023/10/09 07:56:20;;;;;;;22.00;13.37;;;;;16.10;101389.00;;;;5015944;28;20875;-70
2023/10/09 07:59:10;;;;;;;27.33;12.77;;;;;16.10;101381.00;;;;5022563;28;20225;-70
2023/10/09 08:02:02;;;;;;;23.80;12.97;;;;;16.20;101393.00;;;;5022984;28;20792;-70
2023/10/09 08:04:49;;;;;;;22.83;13.30;;;;;16.20;101392.00;;;;5019254;28;20706;-71
2023/10/09 08:07:35;;;;;;;34.10;14.90;;;;;16.30;101392.00;;;;5017494;28;20356;-70
2023/10/09 08:14:02;;;;;;;24.03;13.03;;;;;16.20;101411.00;;;;4980121;28;20680;-70
2023/10/09 08:16:49;;;;;;;27.30;13.70;;;;;16.30;101424.00;;;;4977109;28;20367;-70
2023/10/09 08:19:51;;;;;;;26.93;13.60;;;;;16.30;101430.00;;;;5010280;28;20776;-70
2023/10/09 08:22:52;;;;;;;26.77;12.93;;;;;16.40;101448.00;;;;5021805;28;20241;-70
2023/10/09 08:25:57;;;;;;;25.07;13.37;;;;;16.40;101439.00;;;;5013452;28;20971;-69
2023/10/09 08:28:45;;;;;;;23.13;13.23;;;;;16.50;101429.00;;;;5016886;28;20232;-70
2023/10/09 08:31:45;;;;;;;23.97;14.37;;;;;16.50;101428.00;;;;5015217;28;20265;-70
2023/10/09 08:34:48;;;;;;;24.27;14.50;;;;;16.50;101415.00;;;;5015793;28;20249;-70
2023/10/09 08:37:37;;;;;;;27.87;14.83;;;;;16.50;101416.00;;;;5014928;28;20259;-70
2023/10/09 08:40:33;;;;;;;29.07;14.20;;;;;16.60;101426.00;;;;5027404;28;20610;-70
2023/10/09 08:43:20;;;;;;;27.17;14.83;;;;;16.60;101422.00;;;;5019690;28;20249;-70
2023/10/09 08:46:08;;;;;;;25.33;13.77;;;;;16.60;101396.00;;;;5028068;28;20359;-69
2023/10/09 08:48:55;;;;;;;31.00;15.33;;;;;16.50;101363.00;;;;5021651;28;20909;-70
2023/10/09 08:51:42;;;;;;;26.37;13.40;;;;;16.60;101371.00;;;;5015573;28;20273;-70
2023/10/09 08:54:33;;;;;;;27.60;14.63;;;;;16.60;101369.00;;;;5023378;28;20909;-71
2023/10/09 08:57:19;;;;;;;29.20;15.43;;;;;16.70;101351.00;;;;5016974;28;20234;-70
2023/10/09 09:00:09;;;;;;;25.67;14.30;;;;;16.80;101329.00;;;;5015782;28;20254;-70
2023/10/09 09:02:58;;;;;;;27.83;14.47;;;;;16.80;101314.00;;;;5017112;28;20254;-70
2023/10/09 09:05:49;;;;;;;25.73;14.63;;;;;16.90;101293.00;;;;5015461;28;20256;-70
2023/10/09 09:08:36;;;;;;;26.00;14.07;;;;;17.00;101291.00;;;;5022809;28;20240;-69
2023/10/09 09:11:24;;;;;;;26.77;14.53;;;;;17.10;101307.00;;;;5025145;28;20309;-68
2023/10/09 09:14:18;;;;;;;23.93;14.63;;;;;17.10;101294.00;;;;5014852;28;20751;-69
2023/10/09 09:17:10;;;;;;;23.03;13.30;;;;;17.20;101303.00;;;;5010639;28;20230;-68
2023/10/09 09:19:59;;;;;;;25.43;14.87;;;;;17.30;101300.00;;;;5016143;28;20225;-68
2023/10/09 09:22:54;;;;;;;29.57;13.97;;;;;17.40;101307.00;;;;5019417;28;20237;-68
2023/10/09 09:25:45;;;;;;;24.23;13.47;;;;;17.40;101315.00;;;;5015437;28;20233;-68
2023/10/09 09:28:38;;;;;;;31.83;15.07;;;;;17.50;101330.00;;;;5026013;28;20230;-68
2023/10/09 09:31:25;;;;;;;28.40;12.80;;;;;17.60;101350.00;;;;5020467;28;20233;-69
2023/10/09 09:34:16;;;;;;;24.77;13.50;;;;;17.70;101364.00;;;;5026406;28;20765;-68
2023/10/09 09:37:04;;;;;;;23.40;12.40;;;;;17.70;101369.00;;;;5011550;28;20234;-69
2023/10/09 09:39:52;;;;;;;22.03;12.97;;;;;17.70;101374.00;;;;5024618;28;20730;-67
2023/10/09 09:42:44;;;;;;;27.53;12.30;;;;;17.70;101388.00;;;;5021845;28;20241;-69
2023/10/09 09:45:33;;;;;;;20.27;12.93;;;;;17.80;101401.00;;;;5023935;28;20324;-69
2023/10/09 09:48:19;;;;;;;21.87;12.37;;;;;17.80;101400.00;;;;5021722;28;20228;-69
2023/10/09 09:51:08;;;;;;;23.17;12.77;;;;;17.90;101410.00;;;;5017298;28;20877;-68
2023/10/09 09:53:56;;;;;;;23.10;12.50;;;;;17.90;101417.00;;;;5018900;28;20229;-69
2023/10/09 09:56:50;;;;;;;25.20;12.60;;;;;17.90;101417.00;;;;5018953;28;20280;-69
2023/10/09 09:59:49;;;;;;;21.53;11.97;;;;;17.90;101399.00;;;;5015118;28;20256;-69
2023/10/09 10:02:38;;;;;;;23.40;12.33;;;;;17.90;101391.00;;;;5017474;28;20233;-69
2023/10/09 10:05:29;;;;;;;19.90;11.57;;;;;18.00;101390.00;;;;5021785;28;20230;-69
2023/10/09 10:08:19;;;;;;;25.13;12.10;;;;;18.20;101393.00;;;;5017395;28;20649;-69
2023/10/09 10:11:14;;;;;;;22.53;11.27;;;;;18.20;101392.00;;;;5014567;28;20254;-70
2023/10/09 10:14:05;;;;;;;22.83;12.07;;;;;18.20;101381.00;;;;5016573;28;20634;-69
2023/10/09 10:17:01;;;;;;;21.73;12.27;;;;;18.30;101380.00;;;;5014983;28;20288;-69
2023/10/09 10:20:25;;;;;;;22.53;11.87;;;;;18.30;101372.00;;;;5021291;28;20229;-69
2023/10/09 10:23:18;;;;;;;20.33;11.43;;;;;18.20;101379.00;;;;5019788;28;20823;-69
2023/10/09 10:26:20;;;;;;;23.10;11.37;;;;;18.30;101369.00;;;;5019422;28;20229;-69
2023/10/09 10:29:26;;;;;;;18.40;11.50;;;;;18.30;101381.00;;;;5008246;28;20205;-69
2023/10/09 10:32:18;;;;;;;20.77;12.57;;;;;18.40;101375.00;;;;5017326;28;20489;-68
2023/10/09 10:35:06;;;;;;;20.40;11.90;;;;;18.50;101387.00;;;;5023505;28;20564;-69
2023/10/09 10:38:03;;;;;;;19.60;11.93;;;;;18.60;101396.00;;;;5023881;28;20288;-69
2023/10/09 10:40:57;;;;;;;21.07;12.17;;;;;18.60;101394.00;;;;5022747;28;20214;-69
2023/10/09 10:44:21;;;;;;;19.30;12.07;;;;;18.60;101404.00;;;;5028991;28;20604;-70
2023/10/09 10:47:22;;;;;;;19.53;10.97;;;;;18.70;101400.00;;;;5022013;28;20210;-70
2023/10/09 10:50:35;;;;;;;26.27;12.33;;;;;18.70;101405.00;;;;5020449;28;20260;-71
2023/10/09 10:53:19;;;;;;;23.30;11.47;;;;;18.90;101423.00;;;;5022215;28;20289;-70
2023/10/09 10:56:18;;;;;;;23.10;12.07;;;;;18.90;101421.00;;;;5023387;28;20273;-70
2023/10/09 10:59:12;;;;;;;18.37;10.90;;;;;18.90;101425.00;;;;5022729;28;20215;-69
2023/10/09 11:02:13;;;;;;;19.27;10.80;;;;;18.90;101421.00;;;;5022841;28;20238;-67
2023/10/09 11:05:14;;;;;;;24.17;11.30;;;;;18.90;101411.00;;;;5020858;28;20215;-69
2023/10/09 11:08:00;;;;;;;21.53;10.97;;;;;18.90;101413.00;;;;5026718;28;20224;-70
2023/10/09 11:10:50;;;;;;;23.70;11.37;;;;;18.90;101406.00;;;;5017641;28;20212;-69
2023/10/09 11:13:52;;;;;;;19.90;11.80;;;;;19.00;101411.00;;;;5024758;28;20263;-69
2023/10/09 11:16:42;;;;;;;18.73;10.83;;;;;18.90;101413.00;;;;5018504;28;20217;-67
2023/10/09 11:19:31;;;;;;;19.13;10.30;;;;;18.90;101416.00;;;;5018626;28;20314;-70
2023/10/09 11:22:29;;;;;;;22.13;11.00;;;;;19.10;101421.00;;;;5024855;28;20241;-70
2023/10/09 11:25:18;;;;;;;19.93;11.53;;;;;19.20;101427.00;;;;5025469;28;20313;-70
2023/10/09 11:28:27;;;;;;;19.27;10.60;;;;;19.20;101429.00;;;;5025227;28;20862;-70
2023/10/09 11:31:15;;;;;;;18.80;10.73;;;;;19.30;101421.00;;;;5025021;28;20215;-69
2023/10/09 11:34:02;;;;;;;17.23;10.33;;;;;19.30;101423.00;;;;5023198;28;20754;-69
2023/10/09 11:36:55;;;;;;;23.13;11.03;;;;;19.30;101412.00;;;;5022509;28;20254;-68
2023/10/09 11:39:51;;;;;;;17.90;10.77;;;;;19.30;101399.00;;;;5025252;28;20218;-69
2023/10/09 11:42:49;;;;;;;23.23;11.57;;;;;19.30;101402.00;;;;5019329;28;20714;-70
2023/10/09 11:45:38;;;;;;;23.63;11.73;;;;;19.20;101395.00;;;;5022748;28;20224;-69
2023/10/09 11:48:33;;;;;;;21.00;10.27;;;;;19.30;101399.00;;;;5024957;28;20314;-69
2023/10/09 11:51:21;;;;;;;22.37;11.53;;;;;19.40;101396.00;;;;5026156;28;20297;-68
2023/10/09 11:54:08;;;;;;;20.60;10.77;;;;;19.40;101401.00;;;;5016048;28;20210;-69
2023/10/09 11:56:55;;;;;;;22.17;10.73;;;;;19.50;101400.00;;;;5020608;28;20690;-69
2023/10/09 11:59:42;;;;;;;21.13;11.43;;;;;19.60;101397.00;;;;5025765;28;20222;-69
2023/10/09 12:02:28;;;;;;;18.80;10.27;;;;;19.70;101402.00;;;;5023031;28;20313;-66
2023/10/09 12:05:16;;;;;;;18.67;10.33;;;;;19.80;101412.00;;;;5022970;28;20710;-70
2023/10/09 12:08:08;;;;;;;17.77;9.97;;;;;19.90;101408.00;;;;5021408;28;20341;-68
2023/10/09 12:10:58;;;;;;;19.47;10.50;;;;;19.90;101405.00;;;;5023078;28;20216;-69
2023/10/09 12:13:45;;;;;;;18.50;10.17;;;;;19.90;101401.00;;;;5026301;28;20675;-70
2023/10/09 12:16:32;;;;;;;19.47;11.00;;;;;19.90;101408.00;;;;5023183;28;20790;-70
2023/10/09 12:19:19;;;;;;;19.63;9.90;;;;;19.80;101410.00;;;;5026597;28;20223;-71
2023/10/09 12:22:10;;;;;;;23.17;10.60;;;;;19.80;101403.00;;;;5019707;28;20321;-69
2023/10/09 12:24:58;;;;;;;15.27;9.37;;;;;19.80;101406.00;;;;5012760;28;20221;-70
2023/10/09 12:27:44;;;;;;;20.10;9.30;;;;;19.80;101409.00;;;;5019830;28;20282;-70
2023/10/09 12:30:38;;;;;;;12.40;8.53;;;;;19.90;101422.00;;;;5018802;28;20219;-70
2023/10/09 12:33:27;;;;;;;19.47;9.40;;;;;19.90;101426.00;;;;5022520;28;20227;-70
2023/10/09 12:36:19;;;;;;;16.60;9.00;;;;;20.00;101424.00;;;;5019212;28;20222;-68
2023/10/09 12:39:05;;;;;;;20.33;10.63;;;;;20.00;101427.00;;;;5017263;28;20290;-70
2023/10/09 12:41:54;;;;;;;21.70;10.47;;;;;20.00;101426.00;;;;5026082;28;20241;-69
2023/10/09 12:44:40;;;;;;;16.07;8.93;;;;;20.00;101434.00;;;;5025021;28;20767;-69
2023/10/09 12:47:27;;;;;;;19.07;10.27;;;;;20.00;101433.00;;;;5027555;28;20227;-67
2023/10/09 12:50:14;;;;;;;18.90;9.13;;;;;20.00;101426.00;;;;5023636;28;20224;-69
2023/10/09 12:53:06;;;;;;;17.17;9.23;;;;;20.00;101423.00;;;;5015224;28;20231;-71
2023/10/09 12:55:56;;;;;;;20.67;11.70;;;;;19.90;101418.00;;;;5023446;28;20216;-69
2023/10/09 12:58:52;;;;;;;20.03;11.70;;;;;19.90;101420.00;;;;5023575;28;20859;-69
2023/10/09 13:01:43;;;;;;;21.17;10.63;;;;;19.90;101420.00;;;;5024980;28;20800;-69
2023/10/09 13:04:31;;;;;;;18.77;10.73;;;;;19.90;101403.00;;;;5025900;28;20757;-66
2023/10/09 13:07:21;;;;;;;18.10;10.90;;;;;19.80;101390.00;;;;5014902;28;20642;-70
2023/10/09 13:10:09;;;;;;;20.40;9.77;;;;;19.80;101400.00;;;;5017622;28;20213;-69
2023/10/09 13:12:56;;;;;;;19.57;11.60;;;;;19.90;101398.00;;;;5020378;28;20240;-68
2023/10/09 13:15:44;;;;;;;23.90;10.83;;;;;19.90;101401.00;;;;5030056;28;20225;-70
2023/10/09 13:18:31;;;;;;;24.77;11.77;;;;;19.90;101400.00;;;;5025442;28;20270;-69
2023/10/09 13:21:18;;;;;;;21.53;10.60;;;;;19.90;101398.00;;;;5021544;28;20278;-69
2023/10/09 13:24:06;;;;;;;25.73;12.10;;;;;19.90;101391.00;;;;5027026;28;20603;-68
2023/10/09 13:26:57;;;;;;;20.70;11.57;;;;;19.90;101393.00;;;;5027567;28;20293;-70
2023/10/09 13:29:44;;;;;;;19.17;10.03;;;;;19.90;101395.00;;;;5025176;28;20222;-69
2023/10/09 13:32:33;;;;;;;21.57;12.17;;;;;19.90;101393.00;;;;5026596;28;20236;-69
2023/10/09 13:35:27;;;;;;;20.03;11.60;;;;;19.90;101392.00;;;;5022529;28;20216;-68
2023/10/09 13:38:14;;;;;;;18.83;11.63;;;;;19.90;101396.00;;;;5027058;28;20286;-69
2023/10/09 13:41:01;;;;;;;20.77;10.60;;;;;19.80;101395.00;;;;5022231;28;20215;-68
2023/10/09 13:43:51;;;;;;;20.70;10.87;;;;;19.80;101401.00;;;;5027976;28;20392;-69
2023/10/09 13:46:41;;;;;;;24.47;11.90;;;;;19.80;101382.00;;;;5025749;28;20212;-68
2023/10/09 13:49:30;;;;;;;20.37;10.37;;;;;19.80;101391.00;;;;5027165;28;20320;-69
2023/10/09 13:52:18;;;;;;;26.87;12.40;;;;;19.90;101393.00;;;;5027267;28;20302;-70
2023/10/09 13:55:15;;;;;;;22.97;11.37;;;;;19.90;101396.00;;;;5012517;28;20218;-69
2023/10/09 13:58:01;;;;;;;22.50;12.00;;;;;19.90;101392.00;;;;5021326;28;20224;-70
2023/10/09 14:00:49;;;;;;;20.83;11.07;;;;;20.00;101396.00;;;;5020611;28;20956;-66
2023/10/09 14:03:38;;;;;;;21.47;11.57;;;;;20.00;101397.00;;;;5017775;28;20244;-70
2023/10/09 14:06:32;;;;;;;21.13;10.93;;;;;20.00;101391.00;;;;5015478;28;20217;-70
2023/10/09 14:09:31;;;;;;;19.77;10.47;;;;;20.00;101401.00;;;;5012248;28;20232;-68
2023/10/09 14:12:19;;;;;;;22.67;10.90;;;;;20.00;101403.00;;;;5010560;28;20766;-70
2023/10/09 14:15:10;;;;;;;18.20;10.20;;;;;19.90;101407.00;;;;5010542;28;20555;-69
2023/10/09 14:17:57;;;;;;;18.30;10.80;;;;;19.80;101410.00;;;;5013765;28;20706;-70
2023/10/09 14:20:43;;;;;;;23.87;12.20;;;;;19.80;101406.00;;;;5012549;28;20229;-69
2023/10/09 14:23:34;;;;;;;20.30;11.03;;;;;19.70;101405.00;;;;5010830;28;20318;-69
2023/10/09 14:26:22;;;;;;;21.67;11.20;;;;;19.70;101405.00;;;;5009538;28;20577;-66
2023/10/09 14:29:08;;;;;;;20.60;9.97;;;;;19.60;101399.00;;;;5016622;28;20291;-70
2023/10/09 14:32:00;;;;;;;18.83;10.77;;;;;19.60;101406.00;;;;5021093;28;20752;-69
2023/10/09 14:34:49;;;;;;;23.27;11.30;;;;;19.50;101413.00;;;;5014016;28;20798;-70